createdAt,value
2018-06-08T00:00:46.680Z,82.22
2018-06-08T00:01:46.679Z,82.41
2018-06-08T00:02:46.659Z,82.41
2018-06-08T00:03:46.640Z,82.51
2018-06-08T00:04:46.647Z,82.41
2018-06-08T00:05:46.671Z,82.51
2018-06-08T00:06:46.656Z,82.51
2018-06-08T00:07:46.671Z,82.32
2018-06-08T00:08:46.645Z,82.6
2018-06-08T00:09:46.641Z,82.7
2018-06-08T00:10:46.655Z,83
2018-06-08T00:11:46.644Z,82.32
2018-06-08T00:12:46.682Z,82.32
2018-06-08T00:13:46.692Z,82.6
2018-06-08T00:14:46.656Z,82.32
2018-06-08T00:15:46.687Z,82.6
2018-06-08T00:16:46.689Z,82.51
2018-06-08T00:17:46.685Z,83.38
2018-06-08T00:18:46.633Z,82.8
2018-06-08T00:19:46.664Z,83.28
2018-06-08T00:20:46.696Z,82.9
2018-06-08T00:21:46.649Z,82.7
2018-06-08T00:22:46.667Z,82.8
2018-06-08T00:23:46.701Z,82.9
2018-06-08T00:24:46.760Z,82.6
2018-06-08T00:25:46.659Z,82.6
2018-06-08T00:26:46.687Z,82.51
2018-06-08T00:27:46.744Z,82.51
2018-06-08T00:28:46.700Z,82.8
2018-06-08T00:29:46.686Z,82.51
2018-06-08T00:30:46.717Z,82.41
2018-06-08T00:31:46.728Z,83.09
2018-06-08T00:32:46.731Z,82.41
2018-06-08T00:33:46.717Z,82.6
2018-06-08T00:34:46.710Z,82.7
2018-06-08T00:35:46.691Z,82.41
2018-06-08T00:36:46.727Z,82.32
2018-06-08T00:37:46.705Z,82.6
2018-06-08T00:38:46.692Z,82.41
2018-06-08T00:39:46.751Z,82.51
2018-06-08T00:40:46.729Z,82.9
2018-06-08T00:41:46.730Z,82.6
2018-06-08T00:42:46.692Z,83
2018-06-08T00:43:46.725Z,83
2018-06-08T00:44:46.748Z,82.8
2018-06-08T00:45:46.706Z,82.32
2018-06-08T00:46:46.715Z,83.09
2018-06-08T00:47:46.705Z,82.9
2018-06-08T00:48:46.730Z,82.7
2018-06-08T00:49:46.704Z,82.51
2018-06-08T00:50:46.716Z,82.7
2018-06-08T00:51:46.761Z,82.32
2018-06-08T00:52:46.755Z,82.51
2018-06-08T00:53:46.736Z,82.32
2018-06-08T00:54:46.776Z,82.6
2018-06-08T00:55:46.750Z,82.6
2018-06-08T00:56:46.710Z,82.6
2018-06-08T00:57:46.770Z,82.41
2018-06-08T00:58:46.741Z,82.7
2018-06-08T00:59:46.730Z,82.41
2018-06-08T01:00:46.795Z,82.51
2018-06-08T01:01:46.744Z,82.51
2018-06-08T01:02:46.777Z,82.41
2018-06-08T01:03:46.786Z,82.51
2018-06-08T01:04:46.789Z,82.41
2018-06-08T01:05:46.764Z,82.6
2018-06-08T01:06:46.747Z,82.7
2018-06-08T01:07:46.760Z,82.32
2018-06-08T01:10:53.701Z,82.51
2018-06-08T01:11:05.172Z,82.51
2018-06-08T01:12:05.210Z,82.6
2018-06-08T01:13:05.204Z,82.51
2018-06-08T01:14:05.195Z,82.12
2018-06-08T01:15:05.195Z,82.51
2018-06-08T01:16:05.148Z,82.51
2018-06-08T01:17:05.160Z,82.41
2018-06-08T01:18:05.163Z,82.6
2018-06-08T01:19:05.178Z,82.32
2018-06-08T01:20:05.187Z,82.32
2018-06-08T01:21:05.183Z,82.22
2018-06-08T01:22:05.180Z,82.7
2018-06-08T01:23:05.156Z,82.6
2018-06-08T01:24:05.169Z,82.12
2018-06-08T01:25:05.239Z,82.41
2018-06-08T01:26:05.180Z,82.22
2018-06-08T01:27:05.173Z,82.32
2018-06-08T01:28:05.206Z,82.32
2018-06-08T01:29:05.161Z,82.41
2018-06-08T01:30:05.255Z,82.41
2018-06-08T01:31:05.185Z,82.32
2018-06-08T01:32:05.221Z,82.41
2018-06-08T01:33:05.173Z,82.41
2018-06-08T01:34:05.221Z,82.12
2018-06-08T01:35:05.260Z,82.22
2018-06-08T01:36:05.204Z,82.6
2018-06-08T01:37:05.231Z,82.32
2018-06-08T01:38:05.244Z,82.41
2018-06-08T01:39:05.195Z,82.6
2018-06-08T01:40:05.247Z,82.41
2018-06-08T01:41:05.189Z,83
2018-06-08T01:42:05.199Z,82.9
2018-06-08T01:43:05.188Z,82.32
2018-06-08T01:44:05.905Z,83
2018-06-08T01:45:05.779Z,82.41
2018-06-08T01:46:05.223Z,82.6
2018-06-08T01:47:05.274Z,82.51
2018-06-08T01:48:05.204Z,82.51
2018-06-08T01:49:05.215Z,82.12
2018-06-08T01:50:05.217Z,82.6
2018-06-08T01:51:05.249Z,82.6
2018-06-08T01:52:05.244Z,82.6
2018-06-08T01:53:05.243Z,82.41
2018-06-08T01:54:05.234Z,82.41
2018-06-08T01:55:05.284Z,82.51
2018-06-08T01:56:05.232Z,82.7
2018-06-08T01:57:05.222Z,82.8
2018-06-08T01:58:05.218Z,82.6
2018-06-08T01:59:05.238Z,82.7
2018-06-08T02:00:05.258Z,82.41
2018-06-08T02:01:05.242Z,82.12
2018-06-08T02:02:05.245Z,82.32
2018-06-08T02:03:05.201Z,82.41
2018-06-08T02:04:05.237Z,82.51
2018-06-08T02:05:05.273Z,82.7
2018-06-08T02:06:05.226Z,82.12
2018-06-08T02:07:05.257Z,82.6
2018-06-08T02:08:05.213Z,82.41
2018-06-08T02:09:05.248Z,82.22
2018-06-08T02:10:05.305Z,82.37
2018-06-08T02:11:05.290Z,82.41
2018-06-08T02:12:05.243Z,82.32
2018-06-08T02:13:05.295Z,82.32
2018-06-08T02:14:05.286Z,82.32
2018-06-08T02:15:05.258Z,82.32
2018-06-08T02:16:05.274Z,82.51
2018-06-08T02:17:05.302Z,82.22
2018-06-08T02:18:05.224Z,82.41
2018-06-08T02:19:05.281Z,82.47
2018-06-08T02:20:05.321Z,82.51
2018-06-08T02:21:05.251Z,82.32
2018-06-08T02:22:05.248Z,82.22
2018-06-08T02:23:05.286Z,82.6
2018-06-08T02:24:05.263Z,82.32
2018-06-08T02:25:05.318Z,82.12
2018-06-08T02:26:05.282Z,82.51
2018-06-08T02:27:05.315Z,82.41
2018-06-08T02:28:05.268Z,82.6
2018-06-08T02:29:05.269Z,83.09
2018-06-08T02:30:05.304Z,82.51
2018-06-08T02:31:05.314Z,82.7
2018-06-08T02:32:05.271Z,82.37
2018-06-08T02:33:05.273Z,82.28
2018-06-08T02:34:05.320Z,82.6
2018-06-08T02:35:05.319Z,82.41
2018-06-08T02:36:05.272Z,82.32
2018-06-08T02:37:05.273Z,82.28
2018-06-08T02:38:05.288Z,82.57
2018-06-08T02:39:05.317Z,82.28
2018-06-08T02:40:05.353Z,82.41
2018-06-08T02:41:05.299Z,82.66
2018-06-08T02:42:05.334Z,82.6
2018-06-08T02:43:05.319Z,82.41
2018-06-08T02:44:05.328Z,82.7
2018-06-08T02:45:05.346Z,82.51
2018-06-08T02:46:05.665Z,82.41
2018-06-08T02:47:05.323Z,82.47
2018-06-08T02:48:05.344Z,82.32
2018-06-08T02:49:05.333Z,81.73
2018-06-08T02:50:05.367Z,82.51
2018-06-08T02:51:05.288Z,82.51
2018-06-08T02:52:05.303Z,82.03
2018-06-08T02:53:05.354Z,82.03
2018-06-08T02:54:05.365Z,82.37
2018-06-08T02:55:05.399Z,82.51
2018-06-08T02:56:05.346Z,81.93
2018-06-08T02:57:05.348Z,82.51
2018-06-08T02:58:05.318Z,82.32
2018-06-08T02:59:05.313Z,82.41
2018-06-08T03:00:05.404Z,82.37
2018-06-08T03:01:05.361Z,82.51
2018-06-08T03:02:05.358Z,82.47
2018-06-08T03:03:05.391Z,82.03
2018-06-08T03:04:05.347Z,82.6
2018-06-08T03:05:05.381Z,82.32
2018-06-08T03:06:05.377Z,82.47
2018-06-08T03:07:05.402Z,82.6
2018-06-08T03:08:05.341Z,82.51
2018-06-08T03:09:05.365Z,82.51
2018-06-08T03:10:05.373Z,82.41
2018-06-08T03:11:05.398Z,82.6
2018-06-08T03:12:05.450Z,82.41
2018-06-08T03:13:05.367Z,82.41
2018-06-08T03:14:05.362Z,82.51
2018-06-08T03:15:05.441Z,82.57
2018-06-08T03:16:05.430Z,82.32
2018-06-08T03:17:05.388Z,82.47
2018-06-08T03:18:05.370Z,82.47
2018-06-08T03:19:05.424Z,82.51
2018-06-08T03:20:05.438Z,82.47
2018-06-08T03:21:05.408Z,82.22
2018-06-08T03:22:05.490Z,82.47
2018-06-08T03:23:05.494Z,82.41
2018-06-08T03:24:05.449Z,82.41
2018-06-08T03:25:05.410Z,82.7
2018-06-08T03:26:05.420Z,82.51
2018-06-08T03:27:05.515Z,82.18
2018-06-08T03:28:05.478Z,82.41
2018-06-08T03:29:05.467Z,82.41
2018-06-08T03:30:05.470Z,82.28
2018-06-08T03:31:05.450Z,82.6
2018-06-08T03:32:05.484Z,82.6
2018-06-08T03:33:05.453Z,82.8
2018-06-08T03:34:05.387Z,82.7
2018-06-08T03:35:05.416Z,82.6
2018-06-08T03:36:05.543Z,82.41
2018-06-08T03:37:05.492Z,83.09
2018-06-08T03:38:05.407Z,82.66
2018-06-08T03:39:05.415Z,82.6
2018-06-08T03:40:05.473Z,82.47
2018-06-08T03:41:05.473Z,82.41
2018-06-08T03:42:05.426Z,82.57
2018-06-08T03:43:05.466Z,82.28
2018-06-08T03:44:05.436Z,82.76
2018-06-08T03:45:05.433Z,82.41
2018-06-08T03:46:05.421Z,82.32
2018-06-08T03:47:05.431Z,82.6
2018-06-08T03:48:05.453Z,82.57
2018-06-08T03:49:05.534Z,82.12
2018-06-08T03:50:05.471Z,82.6
2018-06-08T03:51:05.497Z,82.6
2018-06-08T03:52:05.461Z,82.51
2018-06-08T03:53:05.457Z,82.51
2018-06-08T03:54:05.499Z,82.57
2018-06-08T03:55:05.524Z,82.8
2018-06-08T03:56:05.505Z,82.7
2018-06-08T03:57:05.475Z,82.6
2018-06-08T03:58:05.466Z,82.47
2018-06-08T03:59:05.447Z,82.51
2018-06-08T04:00:05.479Z,82.41
2018-06-08T04:01:05.438Z,82.57
2018-06-08T04:02:05.443Z,82.37
2018-06-08T04:03:05.501Z,82.7
2018-06-08T04:04:05.516Z,82.51
2018-06-08T04:05:05.539Z,82.32
2018-06-08T04:06:05.495Z,82.7
2018-06-08T04:07:05.496Z,82.28
2018-06-08T04:08:05.485Z,82.7
2018-06-08T04:09:05.488Z,82.37
2018-06-08T04:10:05.500Z,82.41
2018-06-08T04:11:05.481Z,82.57
2018-06-08T04:12:05.536Z,82.7
2018-06-08T04:13:05.519Z,82.7
2018-06-08T04:14:05.470Z,82.7
2018-06-08T04:15:05.575Z,82.7
2018-06-08T04:16:05.480Z,82.51
2018-06-08T04:17:05.508Z,82.6
2018-06-08T04:18:05.475Z,82.7
2018-06-08T04:19:05.492Z,82.32
2018-06-08T04:20:05.544Z,82.41
2018-06-08T04:21:05.518Z,82.66
2018-06-08T04:22:05.522Z,82.66
2018-06-08T04:23:05.478Z,82.41
2018-06-08T04:24:05.553Z,82.41
2018-06-08T04:25:05.518Z,82.22
2018-06-08T04:26:05.550Z,82.22
2018-06-08T04:27:05.502Z,82.47
2018-06-08T04:28:05.560Z,82.32
2018-06-08T04:29:06.038Z,82.57
2018-06-08T04:30:09.542Z,82.32
2018-06-08T04:31:06.186Z,82.51
2018-06-08T04:32:05.580Z,82.51
2018-06-08T04:33:05.640Z,82.51
2018-06-08T04:34:05.514Z,82.7
2018-06-08T04:35:05.561Z,82.6
2018-06-08T04:36:05.538Z,82.6
2018-06-08T04:37:05.524Z,82.9
2018-06-08T04:38:05.524Z,82.9
2018-06-08T04:39:05.524Z,82.6
2018-06-08T04:40:05.542Z,82.32
2018-06-08T04:41:05.520Z,82.51
2018-06-08T04:42:05.580Z,83
2018-06-08T04:43:05.572Z,82.7
2018-06-08T04:44:05.682Z,82.8
2018-06-08T04:45:05.551Z,83.09
2018-06-08T04:46:05.545Z,82.9
2018-06-08T04:47:05.535Z,83.09
2018-06-08T04:48:05.531Z,82.6
2018-06-08T04:49:05.546Z,82.7
2018-06-08T04:50:05.624Z,82.41
2018-06-08T04:51:05.575Z,83.09
2018-06-08T04:52:05.591Z,82.66
2018-06-08T04:53:05.597Z,82.41
2018-06-08T04:54:05.569Z,83
2018-06-08T04:55:05.636Z,83
2018-06-08T04:56:05.608Z,83.05
2018-06-08T04:57:05.590Z,83
2018-06-08T04:58:05.578Z,82.86
2018-06-08T04:59:05.534Z,83.48
2018-06-08T05:00:05.645Z,82.7
2018-06-08T05:01:05.577Z,82.9
2018-06-08T05:02:05.603Z,83.09
2018-06-08T05:03:05.576Z,83.09
2018-06-08T05:04:05.583Z,83.58
2018-06-08T05:05:05.574Z,83.58
2018-06-08T05:06:05.600Z,83.09
2018-06-08T05:07:05.605Z,83.44
2018-06-08T05:08:05.673Z,83.63
2018-06-08T05:09:05.601Z,83.44
2018-06-08T05:10:05.626Z,83.44
2018-06-08T05:11:05.664Z,83.63
2018-06-08T05:12:05.946Z,83.34
2018-06-08T05:13:05.599Z,83.73
2018-06-08T05:14:05.627Z,83.44
2018-06-08T05:15:05.707Z,84.01
2018-06-08T05:16:05.638Z,83.34
2018-06-08T05:17:05.735Z,83.34
2018-06-08T05:18:05.619Z,83.34
2018-06-08T05:19:05.662Z,83.34
2018-06-08T05:20:05.642Z,83.44
2018-06-08T05:21:05.648Z,83.44
2018-06-08T05:22:05.701Z,83.53
2018-06-08T05:23:05.617Z,84.01
2018-06-08T05:24:05.631Z,83.83
2018-06-08T05:25:05.752Z,83.83
2018-06-08T05:26:05.641Z,83.73
2018-06-08T05:27:05.629Z,83.92
2018-06-08T05:28:05.704Z,83.92
2018-06-08T05:29:05.643Z,83.34
2018-06-08T05:30:05.677Z,83.53
2018-06-08T05:31:05.644Z,83.92
2018-06-08T05:32:05.626Z,83.92
2018-06-08T05:33:05.630Z,83.83
2018-06-08T05:34:06.386Z,83.83
2018-06-08T05:35:09.186Z,84.01
2018-06-08T05:36:05.728Z,83.92
2018-06-08T05:37:05.627Z,83.92
2018-06-08T05:38:05.751Z,83.92
2018-06-08T05:39:05.757Z,83.92
2018-06-08T05:40:05.720Z,83.34
2018-06-08T05:41:05.669Z,83.53
2018-06-08T05:42:05.654Z,83.53
2018-06-08T05:43:05.859Z,83.83
2018-06-08T05:44:05.765Z,83.67
2018-06-08T05:45:05.682Z,83.48
2018-06-08T05:46:05.657Z,83.34
2018-06-08T05:47:05.663Z,83.58
2018-06-08T05:48:05.742Z,83.38
2018-06-08T05:49:05.650Z,83.48
2018-06-08T05:50:05.729Z,83.96
2018-06-08T05:51:05.683Z,83.48
2018-06-08T05:52:05.698Z,83.38
2018-06-08T05:53:05.614Z,83.28
2018-06-08T05:54:05.651Z,82.8
2018-06-08T05:55:05.682Z,83.09
2018-06-08T05:56:05.664Z,83.38
2018-06-08T05:57:05.748Z,83.28
2018-06-08T05:58:05.664Z,83.38
2018-06-08T05:59:05.683Z,82.9
2018-06-08T06:00:05.741Z,83
2018-06-08T06:01:05.697Z,83
2018-06-08T06:02:05.701Z,83
2018-06-08T06:03:05.691Z,83.05
2018-06-08T06:04:05.671Z,82.9
2018-06-08T06:05:05.694Z,82.76
2018-06-08T06:06:05.675Z,82.7
2018-06-08T06:07:05.687Z,82.08
2018-06-08T06:08:05.726Z,82.37
2018-06-08T06:09:05.792Z,82.86
2018-06-08T06:10:05.713Z,82.76
2018-06-08T06:11:05.697Z,82.28
2018-06-08T06:12:05.716Z,82.76
2018-06-08T06:13:05.734Z,82.95
2018-06-08T06:14:05.802Z,82.95
2018-06-08T06:15:05.734Z,82.86
2018-06-08T06:16:05.740Z,82.76
2018-06-08T06:17:05.747Z,82.76
2018-06-08T06:18:05.736Z,83.25
2018-06-08T06:19:05.721Z,83.15
2018-06-08T06:20:05.772Z,82.76
2018-06-08T06:21:05.705Z,82.76
2018-06-08T06:22:05.744Z,82.95
2018-06-08T06:23:05.773Z,83.05
2018-06-08T06:24:05.751Z,82.95
2018-06-08T06:25:05.736Z,82.86
2018-06-08T06:26:05.762Z,82.95
2018-06-08T06:27:05.749Z,82.66
2018-06-08T06:28:05.807Z,83.05
2018-06-08T06:29:05.760Z,83.05
2018-06-08T06:30:05.735Z,82.76
2018-06-08T06:31:05.748Z,82.76
2018-06-08T06:32:05.761Z,82.86
2018-06-08T06:33:05.738Z,83
2018-06-08T06:34:05.738Z,82.76
2018-06-08T06:35:05.776Z,82.76
2018-06-08T06:36:05.816Z,82.95
2018-06-08T06:37:05.755Z,82.95
2018-06-08T06:38:05.747Z,83.05
2018-06-08T06:39:05.813Z,82.8
2018-06-08T06:40:05.742Z,82.9
2018-06-08T06:41:05.731Z,83.05
2018-06-08T06:42:05.736Z,82.8
2018-06-08T06:43:05.823Z,82.66
2018-06-08T06:44:05.777Z,83
2018-06-08T06:45:05.774Z,82.66
2018-06-08T06:46:05.769Z,82.47
2018-06-08T06:47:05.789Z,82.57
2018-06-08T06:48:05.760Z,82.28
2018-06-08T06:49:05.778Z,82.57
2018-06-08T06:50:05.845Z,82.47
2018-06-08T06:51:05.773Z,82.66
2018-06-08T06:52:05.796Z,82.57
2018-06-08T06:53:05.826Z,82.76
2018-06-08T06:54:05.794Z,82.28
2018-06-08T06:55:05.811Z,82.37
2018-06-08T06:56:05.812Z,82.47
2018-06-08T06:57:05.812Z,82.08
2018-06-08T06:58:05.844Z,82.28
2018-06-08T06:59:05.792Z,82.28
2018-06-08T07:00:05.806Z,82.18
2018-06-08T07:01:05.818Z,82.28
2018-06-08T07:02:05.825Z,82.6
2018-06-08T07:03:05.898Z,82.47
2018-06-08T07:04:05.859Z,82.37
2018-06-08T07:05:05.813Z,82.47
2018-06-08T07:06:05.793Z,82.32
2018-06-08T07:07:05.787Z,82.47
2018-06-08T07:08:05.792Z,82.66
2018-06-08T07:09:05.816Z,82.37
2018-06-08T07:10:05.851Z,82.28
2018-06-08T07:11:05.977Z,82.47
2018-06-08T07:12:05.888Z,81.89
2018-06-08T07:13:05.824Z,81.89
2018-06-08T07:14:05.816Z,82.08
2018-06-08T07:15:05.791Z,82.18
2018-06-08T07:16:05.806Z,82.57
2018-06-08T07:17:05.844Z,82.47
2018-06-08T07:18:05.875Z,82.28
2018-06-08T07:19:05.926Z,82.37
2018-06-08T07:20:05.823Z,82.32
2018-06-08T07:21:05.868Z,82.47
2018-06-08T07:22:05.847Z,81.89
2018-06-08T07:23:05.891Z,81.79
2018-06-08T07:24:05.886Z,81.93
2018-06-08T07:25:05.807Z,82.08
2018-06-08T07:26:05.901Z,81.79
2018-06-08T07:27:05.873Z,81.98
2018-06-08T07:28:05.873Z,81.6
2018-06-08T07:29:05.842Z,81.89
2018-06-08T07:30:05.926Z,82.18
2018-06-08T07:31:05.855Z,82.03
2018-06-08T07:32:05.955Z,81.79
2018-06-08T07:33:05.911Z,82.51
2018-06-08T07:34:05.876Z,82.51
2018-06-08T07:35:05.849Z,82.18
2018-06-08T07:36:05.862Z,81.98
2018-06-08T07:37:05.868Z,82.57
2018-06-08T07:38:05.866Z,81.89
2018-06-08T07:39:05.921Z,82.08
2018-06-08T07:40:05.993Z,81.79
2018-06-08T07:41:05.914Z,81.89
2018-06-08T07:42:05.940Z,81.79
2018-06-08T07:43:05.946Z,81.98
2018-06-08T07:44:05.889Z,82.32
2018-06-08T07:45:05.935Z,81.93
2018-06-08T07:46:05.871Z,81.93
2018-06-08T07:47:05.879Z,81.89
2018-06-08T07:48:05.886Z,81.79
2018-06-08T07:49:05.890Z,82.22
2018-06-08T07:50:05.941Z,81.93
2018-06-08T07:51:05.909Z,81.98
2018-06-08T07:52:05.901Z,82.22
2018-06-08T07:53:05.908Z,81.73
2018-06-08T07:54:05.901Z,81.83
2018-06-08T07:55:05.887Z,81.93
2018-06-08T07:56:05.958Z,81.54
2018-06-08T07:57:06.001Z,81.64
2018-06-08T07:58:06.877Z,81.54
2018-06-08T07:59:05.872Z,81.83
2018-06-08T08:00:05.903Z,82.03
2018-06-08T08:01:05.895Z,81.93
2018-06-08T08:02:06.058Z,81.73
2018-06-08T08:03:05.909Z,81.73
2018-06-08T08:04:05.910Z,81.64
2018-06-08T08:05:05.915Z,81.73
2018-06-08T08:06:05.896Z,81.73
2018-06-08T08:07:05.931Z,82.12
2018-06-08T08:08:05.905Z,81.64
2018-06-08T08:09:05.914Z,81.64
2018-06-08T08:10:05.932Z,81.73
2018-06-08T08:11:06.039Z,81.6
2018-06-08T08:12:05.906Z,81.64
2018-06-08T08:13:05.962Z,81.93
2018-06-08T08:14:05.900Z,81.93
2018-06-08T08:15:05.977Z,81.54
2018-06-08T08:16:05.969Z,81.93
2018-06-08T08:17:05.937Z,82.03
2018-06-08T08:18:05.920Z,82.12
2018-06-08T08:19:05.927Z,81.93
2018-06-08T08:20:05.939Z,82.12
2018-06-08T08:21:05.946Z,81.73
2018-06-08T08:22:05.904Z,81.64
2018-06-08T08:23:05.959Z,81.64
2018-06-08T08:24:05.914Z,81.54
2018-06-08T08:25:05.939Z,81.73
2018-06-08T08:26:05.934Z,81.64
2018-06-08T08:27:05.938Z,81.83
2018-06-08T08:28:05.961Z,81.73
2018-06-08T08:29:06.013Z,81.83
2018-06-08T08:30:05.957Z,81.64
2018-06-08T08:31:05.953Z,81.73
2018-06-08T08:32:05.993Z,81.64
2018-06-08T08:33:05.967Z,81.93
2018-06-08T08:34:05.979Z,82.12
2018-06-08T08:35:05.979Z,82.03
2018-06-08T08:36:05.997Z,81.64
2018-06-08T08:37:06.000Z,81.64
2018-06-08T08:38:06.004Z,81.83
2018-06-08T08:39:06.030Z,81.83
2018-06-08T08:40:05.966Z,81.64
2018-06-08T08:41:05.967Z,81.64
2018-06-08T08:42:05.927Z,81.45
2018-06-08T08:43:06.061Z,81.35
2018-06-08T08:44:05.985Z,81.54
2018-06-08T08:45:06.025Z,81.54
2018-06-08T08:46:06.058Z,81.45
2018-06-08T08:47:06.025Z,81.73
2018-06-08T08:48:06.041Z,81.54
2018-06-08T08:49:06.027Z,81.54
2018-06-08T08:50:06.035Z,81.05
2018-06-08T08:51:06.080Z,81.45
2018-06-08T08:52:06.115Z,81.05
2018-06-08T08:53:06.030Z,81.45
2018-06-08T08:54:06.003Z,81.54
2018-06-08T08:55:06.018Z,81.54
2018-06-08T08:56:06.073Z,81.54
2018-06-08T08:57:06.072Z,81.54
2018-06-08T08:58:06.098Z,81.35
2018-06-08T08:59:06.044Z,81.54
2018-06-08T09:00:06.090Z,81.35
2018-06-08T09:01:06.046Z,81.45
2018-06-08T09:02:06.033Z,81.45
2018-06-08T09:03:06.045Z,81.54
2018-06-08T09:04:06.051Z,81.64
2018-06-08T09:05:06.046Z,81.54
2018-06-08T09:06:06.028Z,81.25
2018-06-08T09:07:06.035Z,81.54
2018-06-08T09:08:06.075Z,81.45
2018-06-08T09:09:06.057Z,81.35
2018-06-08T09:10:06.015Z,81.45
2018-06-08T09:11:06.069Z,81.35
2018-06-08T09:12:06.731Z,81.54
2018-06-08T09:13:06.077Z,81.54
2018-06-08T09:14:06.065Z,81.54
2018-06-08T09:15:06.074Z,81.54
2018-06-08T09:16:06.081Z,81.35
2018-06-08T09:17:06.163Z,81.54
2018-06-08T09:18:06.058Z,81.54
2018-06-08T09:19:06.045Z,81.54
2018-06-08T09:20:06.160Z,81.64
2018-06-08T09:21:06.105Z,81.54
2018-06-08T09:22:06.111Z,81.45
2018-06-08T09:23:06.126Z,81.45
2018-06-08T09:24:06.047Z,81.54
2018-06-08T09:25:06.106Z,81.54
2018-06-08T09:26:06.069Z,81.54
2018-06-08T09:27:06.068Z,81.35
2018-06-08T09:28:06.127Z,81.25
2018-06-08T09:29:06.081Z,81.45
2018-06-08T09:30:06.061Z,81.45
2018-06-08T09:31:06.119Z,81.45
2018-06-08T09:32:06.124Z,81.64
2018-06-08T09:33:06.204Z,81.54
2018-06-08T09:34:06.125Z,81.45
2018-06-08T09:35:06.140Z,80.96
2018-06-08T09:36:06.128Z,81.45
2018-06-08T09:37:06.108Z,81.35
2018-06-08T09:38:06.222Z,81.54
2018-06-08T09:39:06.106Z,81.54
2018-06-08T09:40:06.214Z,81.35
2018-06-08T09:41:06.124Z,81.35
2018-06-08T09:42:06.101Z,81.45
2018-06-08T09:43:06.835Z,81.45
2018-06-08T09:44:06.131Z,81.35
2018-06-08T09:45:06.124Z,81.64
2018-06-08T09:46:06.135Z,81.35
2018-06-08T09:47:06.135Z,81.35
2018-06-08T09:48:06.144Z,81.35
2018-06-08T09:49:06.154Z,81.54
2018-06-08T09:50:06.087Z,81.45
2018-06-08T09:51:06.111Z,81.45
2018-06-08T09:52:06.208Z,81.35
2018-06-08T09:53:06.161Z,81.45
2018-06-08T09:54:06.129Z,81.25
2018-06-08T09:55:06.099Z,81.45
2018-06-08T09:56:06.131Z,81.54
2018-06-08T09:57:06.127Z,81.15
2018-06-08T09:58:06.213Z,81.25
2018-06-08T09:59:06.166Z,81.45
2018-06-08T10:00:06.147Z,81.35
2018-06-08T10:01:06.203Z,81.54
2018-06-08T10:02:06.234Z,81.45
2018-06-08T10:03:06.484Z,81.54
2018-06-08T10:04:06.170Z,81.54
2018-06-08T10:05:06.168Z,81.64
2018-06-08T10:06:06.109Z,81.45
2018-06-08T10:07:06.144Z,81.35
2018-06-08T10:08:06.156Z,80.87
2018-06-08T10:09:06.160Z,81.05
2018-06-08T10:10:06.144Z,81.05
2018-06-08T10:11:06.335Z,80.87
2018-06-08T10:12:08.307Z,81.05
2018-06-08T10:13:06.149Z,81.25
2018-06-08T10:14:06.146Z,81.05
2018-06-08T10:15:06.149Z,80.96
2018-06-08T10:16:06.155Z,81.25
2018-06-08T10:17:06.185Z,81.15
2018-06-08T10:18:06.162Z,81.35
2018-06-08T10:19:06.180Z,81.25
2018-06-08T10:20:06.211Z,80.96
2018-06-08T10:21:06.139Z,80.87
2018-06-08T10:22:06.280Z,80.87
2018-06-08T10:23:06.180Z,80.67
2018-06-08T10:24:06.181Z,80.87
2018-06-08T10:25:06.180Z,80.87
2018-06-08T10:26:06.169Z,80.87
2018-06-08T10:30:35.009Z,80.77
2018-06-08T10:31:35.002Z,80.77
2018-06-08T10:32:35.010Z,80.67
2018-06-08T10:33:34.991Z,80.19
2018-06-08T10:34:34.997Z,80.28
2018-06-08T10:35:35.003Z,80.19
2018-06-08T10:36:35.028Z,80.09
2018-06-08T10:37:35.028Z,80.77
2018-06-08T10:38:35.052Z,80.38
2018-06-08T10:39:34.996Z,80.28
2018-06-08T10:40:35.040Z,79.99
2018-06-08T10:41:35.012Z,79.9
2018-06-08T10:42:35.010Z,79.9
2018-06-08T10:43:35.017Z,80.19
2018-06-08T10:44:35.079Z,80.28
2018-06-08T10:45:35.034Z,80.28
2018-06-08T10:46:35.096Z,79.9
2018-06-08T10:47:35.032Z,80.09
2018-06-08T10:48:35.047Z,80.28
2018-06-08T10:49:35.012Z,79.99
2018-06-08T10:54:03.772Z,79.99
2018-06-08T10:55:03.752Z,80.28
2018-06-08T10:56:03.654Z,80.38
2018-06-08T10:57:03.729Z,79.8
2018-06-08T10:58:03.711Z,79.9
2018-06-08T10:59:03.717Z,80.09
2018-06-08T11:00:03.664Z,79.8
2018-06-08T11:01:03.703Z,79.99
2018-06-08T11:02:03.691Z,79.99
2018-06-08T11:03:03.750Z,80.19
2018-06-08T11:04:03.773Z,80.19
2018-06-08T11:09:21.185Z,79.9
2018-06-08T11:09:32.764Z,80.09
2018-06-08T11:10:32.750Z,79.99
2018-06-08T11:11:32.793Z,80.28
2018-06-08T11:12:32.755Z,80.67
2018-06-08T11:13:32.831Z,80.38
2018-06-08T11:14:33.086Z,80.19
2018-06-08T11:15:32.753Z,80.47
2018-06-08T11:16:32.787Z,80.28
2018-06-08T11:17:32.814Z,80.19
2018-06-08T11:18:32.747Z,80.38
2018-06-08T11:19:32.806Z,80.19
2018-06-08T11:20:32.814Z,80.67
2018-06-08T11:21:32.835Z,80.38
2018-06-08T11:22:32.769Z,80.57
2018-06-08T11:23:32.822Z,80.28
2018-06-08T11:24:32.834Z,80.38
2018-06-08T11:25:32.778Z,80.19
2018-06-08T11:26:32.863Z,80.19
2018-06-08T11:27:32.823Z,80.28
2018-06-08T11:28:32.933Z,80.28
2018-06-08T11:29:32.811Z,80.28
2018-06-08T11:30:32.823Z,79.99
2018-06-08T11:31:32.882Z,79.8
2018-06-08T11:32:32.858Z,79.9
2018-06-08T11:33:32.799Z,80.19
2018-06-08T11:34:32.868Z,79.9
2018-06-08T11:35:32.832Z,80.09
2018-06-08T11:36:32.859Z,79.9
2018-06-08T11:37:32.891Z,80.19
2018-06-08T11:38:32.789Z,80.09
2018-06-08T11:39:32.875Z,80.09
2018-06-08T11:40:32.882Z,79.99
2018-06-08T11:41:32.828Z,80.28
2018-06-08T11:42:32.848Z,79.6
2018-06-08T11:43:32.809Z,79.7
2018-06-08T11:44:32.828Z,79.5
2018-06-08T11:45:33.040Z,79.7
2018-06-08T11:46:32.857Z,79.8
2018-06-08T11:47:32.855Z,79.12
2018-06-08T11:48:32.835Z,79.12
2018-06-08T11:49:32.836Z,79.12
2018-06-08T11:50:32.866Z,79.99
2018-06-08T11:51:32.889Z,79.32
2018-06-08T11:52:32.854Z,79.32
2018-06-08T11:53:32.867Z,78.83
2018-06-08T11:54:32.877Z,79.41
2018-06-08T11:55:32.905Z,79.22
2018-06-08T11:56:32.831Z,78.83
2018-06-08T11:57:32.890Z,78.87
2018-06-08T11:58:32.852Z,78.83
2018-06-08T11:59:32.832Z,78.92
2018-06-08T12:00:32.857Z,78.64
2018-06-08T12:01:32.876Z,78.44
2018-06-08T12:02:32.892Z,78.92
2018-06-08T12:03:32.866Z,78.54
2018-06-08T12:04:32.892Z,78.74
2018-06-08T12:05:32.850Z,78.92
2018-06-08T12:06:32.882Z,78.74
2018-06-08T12:07:32.860Z,78.34
2018-06-08T12:08:32.889Z,78.15
2018-06-08T12:09:32.888Z,78.15
2018-06-08T12:10:32.871Z,78.25
2018-06-08T12:11:32.909Z,78.05
2018-06-08T12:12:32.859Z,77.67
2018-06-08T12:13:32.913Z,78.05
2018-06-08T12:14:32.879Z,77.28
2018-06-08T12:15:32.907Z,77.28
2018-06-08T12:16:32.874Z,77.47
2018-06-08T12:17:32.891Z,77.37
2018-06-08T12:18:32.866Z,77.67
2018-06-08T12:19:32.861Z,77.67
2018-06-08T12:20:32.883Z,77.67
2018-06-08T12:21:32.923Z,77.47
2018-06-08T12:22:32.896Z,77.19
2018-06-08T12:23:32.924Z,77.57
2018-06-08T12:24:32.915Z,77.47
2018-06-08T12:25:32.900Z,77.57
2018-06-08T12:26:32.885Z,76.89
2018-06-08T12:27:32.886Z,77.37
2018-06-08T12:28:32.887Z,77.37
2018-06-08T12:29:32.921Z,77.57
2018-06-08T12:30:32.961Z,77.86
2018-06-08T12:31:32.918Z,77.86
2018-06-08T12:32:32.935Z,77.86
2018-06-08T12:33:32.876Z,77.57
2018-06-08T12:34:32.879Z,77.57
2018-06-08T12:35:32.907Z,77.57
2018-06-08T12:36:32.963Z,77.57
2018-06-08T12:37:32.913Z,77.09
2018-06-08T12:38:32.903Z,77.09
2018-06-08T12:39:32.890Z,77.09
2018-06-08T12:40:32.921Z,76.7
2018-06-08T12:41:32.893Z,76.7
2018-06-08T12:42:32.879Z,77.47
2018-06-08T12:43:32.989Z,76.79
2018-06-08T12:44:32.936Z,77.09
2018-06-08T12:45:32.893Z,77.09
2018-06-08T12:46:32.949Z,76.79
2018-06-08T12:47:32.918Z,77.57
2018-06-08T12:48:32.945Z,77.57
2018-06-08T12:49:32.932Z,76.89
2018-06-08T12:50:32.925Z,77.09
2018-06-08T12:51:32.946Z,76.99
2018-06-08T12:52:32.914Z,76.89
2018-06-08T12:53:32.972Z,76.89
2018-06-08T12:54:32.958Z,77.09
2018-06-08T12:55:33.071Z,77.09
2018-06-08T12:56:32.992Z,76.89
2018-06-08T12:57:32.944Z,76.79
2018-06-08T12:58:32.984Z,77.09
2018-06-08T12:59:33.011Z,77.67
2018-06-08T13:00:32.940Z,77.03
2018-06-08T13:01:32.955Z,76.89
2018-06-08T13:02:32.925Z,76.6
2018-06-08T13:03:32.973Z,76.7
2018-06-08T13:04:32.978Z,76.89
2018-06-08T13:05:32.955Z,76.89
2018-06-08T13:06:33.031Z,76.83
2018-06-08T13:07:32.991Z,76.6
2018-06-08T13:08:33.001Z,76.89
2018-06-08T13:09:32.983Z,76.7